Time;durP1;ratioP1;P1;durP2;ratioP2;P2;SDS_P1;SDS_P2;PMS_P1;PMS_P2;Temp;Humidity;BMP_temperature;BMP_pressure;BME280_temperature;BME280_humidity;BME280_pressure;Samples;Min_cycle;Max_cycle;Signal;HPM_P1;HPM_P2
2021/05/11 00:04:17;;;;;;;1.97;1.20;;;;;;;;;;10488491;28;20280;-73
2021/05/11 00:09:19;;;;;;;1.70;0.97;;;;;;;;;;10488396;28;20208;-73
2021/05/11 00:14:22;;;;;;;3.83;1.10;;;;;;;;;;10490752;28;20220;-73
2021/05/11 00:19:23;;;;;;;1.33;1.00;;;;;;;;;;10495941;28;20618;-71
2021/05/11 00:24:25;;;;;;;1.97;0.90;;;;;;;;;;10490718;28;20220;-73
2021/05/11 00:29:27;;;;;;;2.27;1.00;;;;;;;;;;10488450;28;20644;-73
2021/05/11 00:34:29;;;;;;;1.37;0.80;;;;;;;;;;10492186;28;20243;-73
2021/05/11 00:39:30;;;;;;;2.07;1.10;;;;;;;;;;10493700;28;20725;-73
2021/05/11 00:44:33;;;;;;;1.83;1.10;;;;;;;;;;10491312;28;20238;-73
2021/05/11 00:49:35;;;;;;;3.30;1.07;;;;;;;;;;10483250;28;20273;-74
2021/05/11 00:54:37;;;;;;;2.17;1.00;;;;;;;;;;10493602;28;20293;-74
2021/05/11 00:59:39;;;;;;;1.90;0.93;;;;;;;;;;10497820;28;20208;-74
2021/05/11 01:04:41;;;;;;;2.83;0.90;;;;;;;;;;10489670;28;20220;-73
2021/05/11 01:09:43;;;;;;;1.50;0.70;;;;;;;;;;10489308;28;20272;-74
2021/05/11 01:14:47;;;;;;;3.53;1.10;;;;;;;;;;10490824;28;20231;-74
2021/05/11 01:19:50;;;;;;;2.60;1.00;;;;;;;;;;10486017;28;20209;-72
2021/05/11 01:24:55;;;;;;;1.83;0.97;;;;;;;;;;10494131;28;20796;-71
2021/05/11 01:30:06;;;;;;;2.00;1.03;;;;;;;;;;10482483;28;20280;-74
2021/05/11 01:46:17;;;;;;;1.10;0.90;;;;;;;;;;10496554;28;20259;-73
2021/05/11 01:51:28;;;;;;;2.23;1.10;;;;;;;;;;10489308;28;20243;-73
2021/05/11 01:56:50;;;;;;;1.87;1.10;;;;;;;;;;10485117;28;20244;-73
2021/05/11 02:18:18;;;;;;;1.03;0.93;;;;;;;;;;10491453;28;20468;-73
2021/05/11 02:23:20;;;;;;;1.77;0.93;;;;;;;;;;10479543;28;20305;-73
2021/05/11 02:28:23;;;;;;;3.20;1.00;;;;;;;;;;10491059;28;20200;-73
2021/05/11 02:33:25;;;;;;;1.73;1.10;;;;;;;;;;10495803;28;20633;-73
2021/05/11 02:38:27;;;;;;;1.27;0.90;;;;;;;;;;10491213;28;20781;-73
2021/05/11 02:43:32;;;;;;;1.63;0.93;;;;;;;;;;10482854;28;20243;-74
2021/05/11 02:48:34;;;;;;;2.53;1.00;;;;;;;;;;10488650;28;20205;-73
2021/05/11 02:53:36;;;;;;;2.33;0.87;;;;;;;;;;10495196;28;20219;-74
2021/05/11 02:58:38;;;;;;;2.27;1.10;;;;;;;;;;10485399;28;20291;-73
2021/05/11 03:03:40;;;;;;;1.77;0.97;;;;;;;;;;10488629;28;20625;-73
2021/05/11 03:08:43;;;;;;;1.83;0.87;;;;;;;;;;10497415;28;20184;-73
2021/05/11 03:13:46;;;;;;;2.13;1.00;;;;;;;;;;10488637;28;20251;-73
2021/05/11 03:18:47;;;;;;;1.70;0.90;;;;;;;;;;10495945;28;20605;-74
2021/05/11 03:23:49;;;;;;;2.27;1.00;;;;;;;;;;10491629;28;20318;-74
2021/05/11 03:28:51;;;;;;;1.43;1.00;;;;;;;;;;10498973;28;20196;-73
2021/05/11 03:33:53;;;;;;;1.10;0.90;;;;;;;;;;10495416;28;20223;-73
2021/05/11 03:38:55;;;;;;;1.63;0.90;;;;;;;;;;10483882;28;20200;-73
2021/05/11 03:44:03;;;;;;;2.10;1.10;;;;;;;;;;10496584;28;20265;-72
2021/05/11 03:49:04;;;;;;;3.83;1.07;;;;;;;;;;10466961;28;20656;-74
2021/05/11 03:54:07;;;;;;;1.27;1.00;;;;;;;;;;10480825;28;20700;-74
2021/05/11 03:59:09;;;;;;;1.37;1.00;;;;;;;;;;10464672;28;20586;-74
2021/05/11 04:04:11;;;;;;;1.43;0.83;;;;;;;;;;10462649;28;20710;-72
2021/05/11 04:09:19;;;;;;;2.13;1.10;;;;;;;;;;10520086;28;20252;-73
2021/05/11 04:19:38;;;;;;;3.00;1.30;;;;;;;;;;10479561;28;20215;-74
2021/05/11 04:24:40;;;;;;;2.20;0.93;;;;;;;;;;10489572;28;20216;-74
2021/05/11 04:29:43;;;;;;;4.20;1.20;;;;;;;;;;10486764;28;20234;-74
2021/05/11 04:34:45;;;;;;;2.50;1.20;;;;;;;;;;10486545;28;20239;-74
2021/05/11 04:39:48;;;;;;;4.63;1.33;;;;;;;;;;10475664;28;20253;-74
2021/05/11 04:44:52;;;;;;;3.37;1.20;;;;;;;;;;10488482;28;20600;-74
2021/05/11 04:49:54;;;;;;;3.83;1.47;;;;;;;;;;10492289;28;20219;-74
2021/05/11 04:54:56;;;;;;;3.90;1.50;;;;;;;;;;10488742;28;20284;-74
2021/05/11 05:00:02;;;;;;;2.50;1.20;;;;;;;;;;10482325;28;20220;-75
2021/05/11 05:05:04;;;;;;;2.87;1.33;;;;;;;;;;10488969;28;20231;-74
2021/05/11 05:10:07;;;;;;;2.97;1.47;;;;;;;;;;10482666;28;20277;-73
2021/05/11 05:15:11;;;;;;;4.27;1.40;;;;;;;;;;10492727;28;20285;-73
2021/05/11 05:20:13;;;;;;;3.97;1.80;;;;;;;;;;10489752;28;20192;-72
2021/05/11 05:25:19;;;;;;;2.63;1.50;;;;;;;;;;10482046;28;20220;-72
2021/05/11 05:30:22;;;;;;;4.07;1.47;;;;;;;;;;10486024;28;20211;-73
2021/05/11 05:35:24;;;;;;;1.77;1.10;;;;;;;;;;10483508;28;20212;-73
2021/05/11 05:40:27;;;;;;;4.30;1.60;;;;;;;;;;10480491;28;20217;-73
2021/05/11 05:45:30;;;;;;;3.03;1.20;;;;;;;;;;10490098;28;20292;-74
2021/05/11 05:50:32;;;;;;;5.53;1.50;;;;;;;;;;10483001;28;20553;-74
2021/05/11 05:55:34;;;;;;;3.40;1.30;;;;;;;;;;10479631;28;21093;-72
2021/05/11 06:00:37;;;;;;;2.57;1.40;;;;;;;;;;10484857;28;20188;-74
2021/05/11 06:05:39;;;;;;;3.87;1.67;;;;;;;;;;10482002;28;20299;-74
2021/05/11 06:10:41;;;;;;;3.80;1.70;;;;;;;;;;10506815;28;20228;-73
2021/05/11 06:21:05;;;;;;;2.67;1.53;;;;;;;;;;10479738;28;20206;-73
2021/05/11 06:26:09;;;;;;;2.80;1.40;;;;;;;;;;10504874;28;20357;-72
2021/05/11 06:31:12;;;;;;;2.87;1.67;;;;;;;;;;10478648;28;20275;-73
2021/05/11 06:36:14;;;;;;;3.97;1.60;;;;;;;;;;10467483;28;20213;-73
2021/05/11 06:41:16;;;;;;;5.43;1.70;;;;;;;;;;10476532;28;20219;-72
2021/05/11 06:57:00;;;;;;;3.03;1.50;;;;;;;;;;10475157;28;20278;-71
2021/05/11 07:02:03;;;;;;;4.43;1.70;;;;;;;;;;10477932;28;20212;-71
2021/05/11 07:07:10;;;;;;;5.60;1.83;;;;;;;;;;10463055;28;20580;-72
2021/05/11 07:17:43;;;;;;;6.13;1.80;;;;;;;;;;10481487;28;20687;-72
2021/05/11 07:22:47;;;;;;;5.70;1.70;;;;;;;;;;10483393;28;20207;-72
2021/05/11 07:28:08;;;;;;;4.37;1.87;;;;;;;;;;10487868;28;20287;-72
2021/05/11 07:33:11;;;;;;;5.30;1.90;;;;;;;;;;10486566;28;20244;-73
2021/05/11 07:38:13;;;;;;;6.03;2.20;;;;;;;;;;10474519;28;20219;-72
2021/05/11 07:43:15;;;;;;;5.57;2.40;;;;;;;;;;10486104;28;20270;-71
2021/05/11 07:48:46;;;;;;;4.53;1.93;;;;;;;;;;10485034;28;20238;-71
2021/05/11 08:04:35;;;;;;;8.83;2.13;;;;;;;;;;10488189;28;20293;-73
2021/05/11 08:15:11;;;;;;;3.10;1.73;;;;;;;;;;10483270;28;20904;-73
2021/05/11 08:20:34;;;;;;;5.87;2.00;;;;;;;;;;10466692;28;20833;-72
2021/05/11 08:30:56;;;;;;;4.60;1.87;;;;;;;;;;10455939;28;20829;-72
2021/05/11 08:35:59;;;;;;;5.33;2.20;;;;;;;;;;10495235;28;20250;-72
2021/05/11 08:41:02;;;;;;;6.73;3.53;;;;;;;;;;10466771;28;20196;-73
2021/05/11 08:46:06;;;;;;;6.87;3.27;;;;;;;;;;10483849;28;20235;-73
2021/05/11 08:51:11;;;;;;;4.30;2.40;;;;;;;;;;10467360;28;20609;-72
2021/05/11 09:07:19;;;;;;;5.63;2.00;;;;;;;;;;10482425;28;20246;-71
2021/05/11 09:28:28;;;;;;;5.70;2.60;;;;;;;;;;10476040;28;20199;-71
2021/05/11 09:33:33;;;;;;;5.00;2.30;;;;;;;;;;10485492;28;20325;-71
2021/05/11 09:55:03;;;;;;;4.27;2.27;;;;;;;;;;10484770;28;20222;-72
2021/05/11 10:44:29;;;;;;;6.03;2.93;;;;;;;;;;10468798;28;20246;-72
2021/05/11 10:49:32;;;;;;;7.20;3.37;;;;;;;;;;10476483;28;20183;-72
2021/05/11 10:55:07;;;;;;;8.73;3.37;;;;;;;;;;10496953;28;20222;-72
2021/05/11 11:00:45;;;;;;;7.70;3.67;;;;;;;;;;10475020;28;20557;-72
2021/05/11 11:05:52;;;;;;;5.93;2.77;;;;;;;;;;10385461;28;20264;-71
2021/05/11 11:11:02;;;;;;;7.60;3.07;;;;;;;;;;10451207;28;20216;-73
2021/05/11 11:16:05;;;;;;;7.13;3.67;;;;;;;;;;10482448;28;20223;-71
2021/05/11 11:21:22;;;;;;;7.17;2.83;;;;;;;;;;10483839;28;20192;-73
2021/05/11 11:26:25;;;;;;;7.37;2.80;;;;;;;;;;10477221;28;20239;-72
2021/05/11 11:31:28;;;;;;;5.63;2.70;;;;;;;;;;10476602;28;20281;-71
2021/05/11 11:36:32;;;;;;;6.47;2.50;;;;;;;;;;10484183;28;20274;-71
2021/05/11 11:41:35;;;;;;;4.87;2.70;;;;;;;;;;10462686;28;20200;-71
2021/05/11 11:46:38;;;;;;;6.37;2.77;;;;;;;;;;10472845;28;20300;-71
2021/05/11 11:51:41;;;;;;;6.60;2.70;;;;;;;;;;10480973;28;20610;-72
2021/05/11 12:02:04;;;;;;;7.33;2.87;;;;;;;;;;10478584;28;20665;-72
2021/05/11 12:07:28;;;;;;;10.00;2.80;;;;;;;;;;10487751;28;20319;-71
2021/05/11 12:12:31;;;;;;;6.60;2.80;;;;;;;;;;10474686;28;20204;-70
2021/05/11 12:17:47;;;;;;;5.13;2.67;;;;;;;;;;10477875;28;20327;-70
2021/05/11 12:23:01;;;;;;;8.37;2.50;;;;;;;;;;10480220;28;20191;-72
2021/05/11 12:28:03;;;;;;;6.37;3.00;;;;;;;;;;10483359;28;20676;-71
2021/05/11 12:33:07;;;;;;;6.47;3.00;;;;;;;;;;10471414;28;20229;-72
2021/05/11 12:38:17;;;;;;;7.93;3.53;;;;;;;;;;10502979;28;20223;-71
2021/05/11 12:43:36;;;;;;;5.00;3.10;;;;;;;;;;10470816;28;20674;-72
2021/05/11 12:48:48;;;;;;;4.95;2.88;;;;;;;;;;10483866;28;20196;-72
2021/05/11 12:53:53;;;;;;;7.13;3.67;;;;;;;;;;10473389;28;20940;-73
2021/05/11 12:59:03;;;;;;;7.22;3.58;;;;;;;;;;10478264;28;20636;-73
2021/05/11 13:04:26;;;;;;;6.20;3.60;;;;;;;;;;10479548;28;20216;-70
2021/05/11 13:13:35;;;;;;;6.30;3.50;;;;;;;;;;10474687;28;20196;-72
2021/05/11 13:20:25;;;;;;;6.20;3.63;;;;;;;;;;10468798;28;20254;-71
2021/05/11 13:25:32;;;;;;;8.75;3.67;;;;;;;;;;10473366;28;20204;-69
2021/05/11 13:36:13;;;;;;;8.07;3.63;;;;;;;;;;10484629;28;20286;-71
2021/05/11 13:41:16;;;;;;;9.83;4.10;;;;;;;;;;10473338;28;20192;-71
2021/05/11 13:46:18;;;;;;;7.03;3.97;;;;;;;;;;10484237;28;21188;-71
2021/05/11 13:51:20;;;;;;;7.03;4.03;;;;;;;;;;10474945;28;20260;-72
2021/05/11 13:56:35;;;;;;;8.10;4.60;;;;;;;;;;10472475;28;20211;-72
2021/05/11 14:07:06;;;;;;;8.33;5.20;;;;;;;;;;10434657;28;20274;-70
2021/05/11 14:12:10;;;;;;;8.13;4.80;;;;;;;;;;10460305;28;20707;-71
2021/05/11 14:17:12;;;;;;;9.57;5.53;;;;;;;;;;10463502;28;20622;-70
2021/05/11 14:22:14;;;;;;;9.10;5.40;;;;;;;;;;10473878;28;20220;-70
2021/05/11 14:27:17;;;;;;;9.13;5.10;;;;;;;;;;10477333;28;20303;-70
2021/05/11 14:32:19;;;;;;;9.87;5.27;;;;;;;;;;10490421;28;20619;-70
2021/05/11 14:37:22;;;;;;;7.60;4.57;;;;;;;;;;10479029;28;20216;-69
2021/05/11 14:42:25;;;;;;;8.90;4.43;;;;;;;;;;10486191;28;20234;-69
2021/05/11 14:47:28;;;;;;;8.50;4.50;;;;;;;;;;10488709;28;20251;-69
2021/05/11 14:52:31;;;;;;;8.50;4.50;;;;;;;;;;10490734;28;20699;-71
2021/05/11 14:57:35;;;;;;;7.37;4.13;;;;;;;;;;10484023;28;20243;-71
2021/05/11 15:02:37;;;;;;;8.57;4.30;;;;;;;;;;10489362;28;20188;-72
2021/05/11 15:07:40;;;;;;;7.07;4.23;;;;;;;;;;10515975;28;20295;-71
2021/05/11 15:12:43;;;;;;;10.23;4.43;;;;;;;;;;10485043;28;20239;-71
2021/05/11 15:18:05;;;;;;;7.97;4.27;;;;;;;;;;10485325;28;20208;-71
2021/05/11 15:23:07;;;;;;;9.47;4.83;;;;;;;;;;10484555;28;20235;-71
2021/05/11 15:28:10;;;;;;;10.10;5.40;;;;;;;;;;10483638;28;20276;-72
2021/05/11 15:33:12;;;;;;;9.37;5.13;;;;;;;;;;10468042;28;20310;-71
2021/05/11 15:38:14;;;;;;;8.30;5.13;;;;;;;;;;10482523;28;20675;-72
2021/05/11 15:43:17;;;;;;;8.47;4.50;;;;;;;;;;10477753;28;20531;-72
2021/05/11 15:48:20;;;;;;;10.23;5.43;;;;;;;;;;10481205;28;20683;-72
2021/05/11 15:53:22;;;;;;;10.30;5.20;;;;;;;;;;10480827;28;20542;-70
2021/05/11 15:58:25;;;;;;;9.67;4.63;;;;;;;;;;10475155;28;20694;-71
2021/05/11 16:03:27;;;;;;;7.03;4.20;;;;;;;;;;10474029;28;20242;-71
2021/05/11 16:08:29;;;;;;;7.90;4.53;;;;;;;;;;10487983;28;20261;-72
2021/05/11 16:13:36;;;;;;;10.63;5.63;;;;;;;;;;10483218;28;20221;-71
2021/05/11 16:18:39;;;;;;;9.93;5.37;;;;;;;;;;10480286;28;20250;-73
2021/05/11 16:23:41;;;;;;;10.50;6.07;;;;;;;;;;10480548;28;20212;-71
2021/05/11 16:28:44;;;;;;;10.30;6.40;;;;;;;;;;10487798;28;20193;-71
2021/05/11 16:33:46;;;;;;;10.80;5.60;;;;;;;;;;10486379;28;20224;-72
2021/05/11 16:38:48;;;;;;;10.27;6.10;;;;;;;;;;10463471;28;20288;-71
2021/05/11 16:43:56;;;;;;;9.63;5.63;;;;;;;;;;10485698;28;20223;-72
2021/05/11 16:48:58;;;;;;;10.50;5.83;;;;;;;;;;10484236;28;20211;-72
2021/05/11 16:54:05;;;;;;;9.93;6.43;;;;;;;;;;10480780;28;20215;-70
2021/05/11 16:59:08;;;;;;;10.60;6.00;;;;;;;;;;10484730;28;20513;-71
2021/05/11 17:04:10;;;;;;;11.50;6.90;;;;;;;;;;10483684;28;20273;-72
2021/05/11 17:09:12;;;;;;;11.87;6.73;;;;;;;;;;10474795;28;20200;-72
2021/05/11 17:14:15;;;;;;;10.53;5.80;;;;;;;;;;10487552;28;20564;-73
2021/05/11 17:19:17;;;;;;;11.37;7.20;;;;;;;;;;10479999;28;20212;-73
2021/05/11 17:24:19;;;;;;;11.20;6.83;;;;;;;;;;10483312;28;20576;-71
2021/05/11 17:29:26;;;;;;;13.00;7.90;;;;;;;;;;10483740;28;20286;-71
2021/05/11 17:34:28;;;;;;;12.73;7.87;;;;;;;;;;10476240;28;20561;-72
2021/05/11 17:39:30;;;;;;;12.77;7.20;;;;;;;;;;10480041;28;20241;-72
2021/05/11 17:44:33;;;;;;;12.37;7.93;;;;;;;;;;10489121;28;20219;-72
2021/05/11 17:49:35;;;;;;;12.23;7.67;;;;;;;;;;10477502;28;20209;-72
2021/05/11 17:54:37;;;;;;;11.77;7.37;;;;;;;;;;10476109;28;20215;-72
2021/05/11 17:59:41;;;;;;;11.50;6.87;;;;;;;;;;10477507;28;20201;-72
2021/05/11 18:04:43;;;;;;;11.03;7.00;;;;;;;;;;10475797;28;20224;-72
2021/05/11 18:09:45;;;;;;;11.77;6.77;;;;;;;;;;10474457;28;20200;-71
2021/05/11 18:14:48;;;;;;;10.77;5.83;;;;;;;;;;10478265;28;20519;-71
2021/05/11 18:19:51;;;;;;;7.50;3.83;;;;;;;;;;10478133;28;20534;-71
2021/05/11 18:24:53;;;;;;;4.60;2.50;;;;;;;;;;10479014;28;20208;-73
2021/05/11 18:29:57;;;;;;;3.97;1.80;;;;;;;;;;10480124;28;20664;-73
2021/05/11 18:35:01;;;;;;;1.33;0.73;;;;;;;;;;10480574;28;20216;-70
2021/05/11 18:40:04;;;;;;;2.20;1.40;;;;;;;;;;10480606;28;20805;-72
2021/05/11 18:45:08;;;;;;;0.70;0.70;;;;;;;;;;10476345;28;20249;-73
2021/05/11 18:50:10;;;;;;;1.00;0.60;;;;;;;;;;10480489;28;20275;-71
2021/05/11 18:55:12;;;;;;;0.80;0.70;;;;;;;;;;10473674;28;20228;-71
2021/05/11 19:00:16;;;;;;;2.10;0.90;;;;;;;;;;10482359;28;20184;-73
2021/05/11 19:05:19;;;;;;;0.70;0.50;;;;;;;;;;10466071;28;20209;-73
2021/05/11 19:10:21;;;;;;;0.90;0.40;;;;;;;;;;10477567;28;20193;-73
2021/05/11 19:15:24;;;;;;;1.30;0.67;;;;;;;;;;10473333;28;20297;-73
2021/05/11 19:20:26;;;;;;;1.03;0.40;;;;;;;;;;10481204;28;20224;-73
2021/05/11 19:25:28;;;;;;;1.40;0.90;;;;;;;;;;10484090;28;20208;-74
2021/05/11 19:30:31;;;;;;;2.47;1.37;;;;;;;;;;10486138;28;20196;-74
2021/05/11 19:35:38;;;;;;;1.73;0.90;;;;;;;;;;10488224;28;20672;-74
2021/05/11 19:40:40;;;;;;;1.80;0.85;;;;;;;;;;10483404;28;20495;-74
2021/05/11 19:45:43;;;;;;;0.83;0.80;;;;;;;;;;10486390;28;20745;-76
2021/05/11 19:50:46;;;;;;;1.63;0.80;;;;;;;;;;10469341;28;20188;-75
2021/05/11 19:55:53;;;;;;;0.60;0.50;;;;;;;;;;10469503;28;20723;-70
2021/05/11 20:00:56;;;;;;;1.07;0.77;;;;;;;;;;10466624;28;20462;-74
2021/05/11 20:05:59;;;;;;;1.43;0.90;;;;;;;;;;10458629;28;20586;-71
2021/05/11 20:11:01;;;;;;;2.40;1.00;;;;;;;;;;10466487;28;20219;-71
2021/05/11 20:16:04;;;;;;;1.13;0.70;;;;;;;;;;10479691;28;20213;-72
2021/05/11 20:21:06;;;;;;;1.13;0.87;;;;;;;;;;10483171;28;20200;-73
2021/05/11 20:26:08;;;;;;;0.70;0.70;;;;;;;;;;10516245;28;20217;-74
2021/05/11 20:31:11;;;;;;;1.10;0.87;;;;;;;;;;10477310;28;20279;-74
2021/05/11 20:36:15;;;;;;;1.67;0.90;;;;;;;;;;10474266;28;20962;-74
2021/05/11 20:41:17;;;;;;;0.70;0.60;;;;;;;;;;10477047;28;20283;-73
2021/05/11 20:46:21;;;;;;;1.70;0.70;;;;;;;;;;10486166;28;20235;-74
2021/05/11 20:51:23;;;;;;;3.70;0.80;;;;;;;;;;10486784;28;20688;-74
2021/05/11 20:56:26;;;;;;;1.80;0.90;;;;;;;;;;10484290;28;20310;-72
2021/05/11 21:01:29;;;;;;;1.53;0.93;;;;;;;;;;10487441;28;20196;-74
2021/05/11 21:06:31;;;;;;;1.73;1.00;;;;;;;;;;10484695;28;20248;-73
2021/05/11 21:11:33;;;;;;;1.77;1.00;;;;;;;;;;10484466;28;20277;-74
2021/05/11 21:16:36;;;;;;;1.40;1.10;;;;;;;;;;10483703;28;20272;-73
2021/05/11 21:21:38;;;;;;;1.60;1.03;;;;;;;;;;10483655;28;20270;-74
2021/05/11 21:26:41;;;;;;;1.70;1.00;;;;;;;;;;10480906;28;20208;-75
2021/05/11 21:31:44;;;;;;;2.90;1.50;;;;;;;;;;10482181;28;20204;-74
2021/05/11 21:36:47;;;;;;;2.67;1.20;;;;;;;;;;10485425;28;20232;-74
2021/05/11 21:41:49;;;;;;;2.67;1.13;;;;;;;;;;10482530;28;20204;-73
2021/05/11 21:46:52;;;;;;;2.47;1.43;;;;;;;;;;10479974;28;20238;-73
2021/05/11 21:51:56;;;;;;;3.60;1.70;;;;;;;;;;10482275;28;20250;-74
2021/05/11 21:56:58;;;;;;;1.47;1.23;;;;;;;;;;10484675;28;20270;-74
2021/05/11 22:02:01;;;;;;;2.43;1.23;;;;;;;;;;10484721;28;20184;-74
2021/05/11 22:07:03;;;;;;;1.00;0.70;;;;;;;;;;10481010;28;20212;-73
2021/05/11 22:12:05;;;;;;;2.67;1.20;;;;;;;;;;10480632;28;20193;-74
2021/05/11 22:17:28;;;;;;;2.20;1.10;;;;;;;;;;10480740;28;20223;-74
2021/05/11 22:22:30;;;;;;;2.37;1.00;;;;;;;;;;10481076;28;20562;-73
2021/05/11 22:27:32;;;;;;;1.70;1.00;;;;;;;;;;10483790;28;20250;-74
2021/05/11 22:32:35;;;;;;;1.67;0.80;;;;;;;;;;10481479;28;20796;-74
2021/05/11 22:37:37;;;;;;;1.80;1.00;;;;;;;;;;10483627;28;20246;-74
2021/05/11 22:42:39;;;;;;;0.77;0.60;;;;;;;;;;10482808;28;20216;-73
2021/05/11 22:47:42;;;;;;;1.63;0.80;;;;;;;;;;10479509;28;20181;-74
2021/05/11 22:52:44;;;;;;;1.33;0.60;;;;;;;;;;10493969;28;20262;-73
2021/05/11 22:57:47;;;;;;;0.70;0.60;;;;;;;;;;10491430;28;20614;-75
2021/05/11 23:02:49;;;;;;;1.37;1.00;;;;;;;;;;10488756;28;20629;-73
2021/05/11 23:07:54;;;;;;;2.73;1.07;;;;;;;;;;10485598;28;20188;-73
2021/05/11 23:12:56;;;;;;;1.87;1.10;;;;;;;;;;10489633;28;20192;-73
2021/05/11 23:18:03;;;;;;;0.67;0.60;;;;;;;;;;10488911;28;20227;-72
2021/05/11 23:23:05;;;;;;;2.00;0.90;;;;;;;;;;10485423;28;20640;-73
2021/05/11 23:28:11;;;;;;;0.70;0.70;;;;;;;;;;10524546;28;20267;-73
2021/05/11 23:33:14;;;;;;;1.83;1.07;;;;;;;;;;10487345;28;20216;-74
2021/05/11 23:38:16;;;;;;;1.20;0.83;;;;;;;;;;10490193;28;20223;-73
2021/05/11 23:43:19;;;;;;;1.53;0.70;;;;;;;;;;10488432;28;20657;-74
2021/05/11 23:48:22;;;;;;;0.90;0.50;;;;;;;;;;10488129;28;20192;-74
2021/05/11 23:53:24;;;;;;;0.83;0.60;;;;;;;;;;10491280;28;20213;-75
2021/05/11 23:58:26;;;;;;;1.20;0.33;;;;;;;;;;10489403;28;20763;-74
